sensor_id;sensor_type;location;lat;lon;timestamp;pressure;altitude;pressure_sealevel;temperature;humidity
64610;BME280;51019;46.090;6.350;2022-09-09T00:00:48;96410.47;;;16.10;78.61
64610;BME280;51019;46.090;6.350;2022-09-09T00:03:18;96471.28;;;16.48;78.85
64610;BME280;51019;46.090;6.350;2022-09-09T00:05:52;96497.78;;;16.25;79.57
64610;BME280;51019;46.090;6.350;2022-09-09T00:08:34;96477.63;;;16.39;78.38
64610;BME280;51019;46.090;6.350;2022-09-09T00:11:05;96488.13;;;16.69;77.71
64610;BME280;51019;46.090;6.350;2022-09-09T00:13:37;96484.56;;;16.77;75.39
64610;BME280;51019;46.090;6.350;2022-09-09T00:16:12;96471.31;;;16.62;76.70
64610;BME280;51019;46.090;6.350;2022-09-09T00:18:51;96513.84;;;16.90;77.36
64610;BME280;51019;46.090;6.350;2022-09-09T00:21:24;96504.97;;;16.83;78.71
64610;BME280;51019;46.090;6.350;2022-09-09T00:23:54;96508.25;;;16.70;80.78
64610;BME280;51019;46.090;6.350;2022-09-09T00:26:29;96509.63;;;16.66;79.83
64610;BME280;51019;46.090;6.350;2022-09-09T00:29:02;96472.38;;;16.53;78.99
64610;BME280;51019;46.090;6.350;2022-09-09T00:31:32;96531.56;;;16.90;77.18
64610;BME280;51019;46.090;6.350;2022-09-09T00:34:03;96442.72;;;16.43;75.94
64610;BME280;51019;46.090;6.350;2022-09-09T00:36:36;96545.00;;;17.03;77.86
64610;BME280;51019;46.090;6.350;2022-09-09T00:39:04;96544.25;;;17.09;77.30
64610;BME280;51019;46.090;6.350;2022-09-09T00:41:40;96559.97;;;17.11;77.97
64610;BME280;51019;46.090;6.350;2022-09-09T00:44:23;96528.63;;;16.85;79.59
64610;BME280;51019;46.090;6.350;2022-09-09T00:47:06;96521.59;;;16.77;83.43
64610;BME280;51019;46.090;6.350;2022-09-09T00:49:45;96518.72;;;16.26;89.82
64610;BME280;51019;46.090;6.350;2022-09-09T00:52:23;96527.69;;;16.40;93.34
64610;BME280;51019;46.090;6.350;2022-09-09T00:55:03;96470.94;;;16.13;94.76
64610;BME280;51019;46.090;6.350;2022-09-09T00:57:32;96555.28;;;16.68;95.95
64610;BME280;51019;46.090;6.350;2022-09-09T01:00:17;96545.97;;;16.50;93.60
64610;BME280;51019;46.090;6.350;2022-09-09T01:02:53;96547.09;;;16.55;90.69
64610;BME280;51019;46.090;6.350;2022-09-09T01:05:28;96534.63;;;16.41;94.98
64610;BME280;51019;46.090;6.350;2022-09-09T01:07:58;96529.06;;;16.36;96.63
64610;BME280;51019;46.090;6.350;2022-09-09T01:10:36;96548.72;;;16.56;94.56
64610;BME280;51019;46.090;6.350;2022-09-09T01:13:13;96555.16;;;16.39;95.72
64610;BME280;51019;46.090;6.350;2022-09-09T01:15:45;96548.16;;;16.46;96.22
64610;BME280;51019;46.090;6.350;2022-09-09T01:18:15;96395.66;;;15.41;97.62
64610;BME280;51019;46.090;6.350;2022-09-09T01:20:49;96498.81;;;15.93;100.00
64610;BME280;51019;46.090;6.350;2022-09-09T01:23:44;96542.19;;;16.07;100.00
64610;BME280;51019;46.090;6.350;2022-09-09T01:26:26;96387.16;;;15.00;100.00
64610;BME280;51019;46.090;6.350;2022-09-09T01:28:55;96526.84;;;15.79;100.00
64610;BME280;51019;46.090;6.350;2022-09-09T01:31:27;96535.41;;;15.81;100.00
64610;BME280;51019;46.090;6.350;2022-09-09T01:33:54;96538.44;;;15.70;100.00
64610;BME280;51019;46.090;6.350;2022-09-09T01:36:26;96532.59;;;15.83;100.00
64610;BME280;51019;46.090;6.350;2022-09-09T01:38:55;96469.69;;;15.55;100.00
64610;BME280;51019;46.090;6.350;2022-09-09T01:41:24;96495.53;;;15.68;100.00
64610;BME280;51019;46.090;6.350;2022-09-09T01:43:53;96520.00;;;15.62;100.00
64610;BME280;51019;46.090;6.350;2022-09-09T01:46:22;96418.59;;;15.09;100.00
64610;BME280;51019;46.090;6.350;2022-09-09T01:48:50;96379.03;;;14.78;100.00
64610;BME280;51019;46.090;6.350;2022-09-09T01:51:17;96421.81;;;14.97;100.00
64610;BME280;51019;46.090;6.350;2022-09-09T01:53:45;96506.56;;;15.41;100.00
64610;BME280;51019;46.090;6.350;2022-09-09T01:56:21;96501.97;;;15.35;100.00
64610;BME280;51019;46.090;6.350;2022-09-09T01:59:01;96464.81;;;15.05;100.00
64610;BME280;51019;46.090;6.350;2022-09-09T02:01:39;96508.16;;;15.19;100.00
64610;BME280;51019;46.090;6.350;2022-09-09T02:04:18;96448.41;;;14.79;100.00
64610;BME280;51019;46.090;6.350;2022-09-09T02:06:52;96518.03;;;15.17;100.00
64610;BME280;51019;46.090;6.350;2022-09-09T02:09:24;96461.22;;;14.90;100.00
64610;BME280;51019;46.090;6.350;2022-09-09T02:11:57;96522.34;;;15.18;100.00
64610;BME280;51019;46.090;6.350;2022-09-09T02:14:31;96444.28;;;14.84;100.00
64610;BME280;51019;46.090;6.350;2022-09-09T02:17:04;96499.22;;;15.20;100.00
64610;BME280;51019;46.090;6.350;2022-09-09T02:19:35;96499.91;;;15.14;100.00
64610;BME280;51019;46.090;6.350;2022-09-09T02:22:03;96497.31;;;15.06;100.00
64610;BME280;51019;46.090;6.350;2022-09-09T02:24:32;96480.75;;;15.20;100.00
64610;BME280;51019;46.090;6.350;2022-09-09T02:27:03;96519.94;;;15.39;100.00
64610;BME280;51019;46.090;6.350;2022-09-09T02:29:38;96508.88;;;15.36;100.00
64610;BME280;51019;46.090;6.350;2022-09-09T02:32:09;96511.00;;;15.40;100.00
64610;BME280;51019;46.090;6.350;2022-09-09T02:34:40;96507.72;;;15.38;100.00
64610;BME280;51019;46.090;6.350;2022-09-09T02:37:09;96503.59;;;15.36;100.00
64610;BME280;51019;46.090;6.350;2022-09-09T02:39:37;96405.78;;;14.59;100.00
64610;BME280;51019;46.090;6.350;2022-09-09T02:42:04;96505.63;;;15.34;100.00
64610;BME280;51019;46.090;6.350;2022-09-09T02:44:32;96453.97;;;14.92;100.00
64610;BME280;51019;46.090;6.350;2022-09-09T02:47:11;96448.06;;;14.82;100.00
64610;BME280;51019;46.090;6.350;2022-09-09T02:49:49;96512.63;;;15.10;100.00
64610;BME280;51019;46.090;6.350;2022-09-09T02:52:27;96378.03;;;14.16;100.00
64610;BME280;51019;46.090;6.350;2022-09-09T02:55:02;96495.19;;;14.93;100.00
64610;BME280;51019;46.090;6.350;2022-09-09T02:57:31;96498.53;;;14.87;100.00
64610;BME280;51019;46.090;6.350;2022-09-09T03:00:00;96505.47;;;14.80;100.00
64610;BME280;51019;46.090;6.350;2022-09-09T03:02:28;96460.34;;;14.59;100.00
64610;BME280;51019;46.090;6.350;2022-09-09T03:04:55;96487.03;;;14.72;100.00
64610;BME280;51019;46.090;6.350;2022-09-09T03:07:23;96502.66;;;14.89;100.00
64610;BME280;51019;46.090;6.350;2022-09-09T03:09:50;96481.75;;;14.72;100.00
64610;BME280;51019;46.090;6.350;2022-09-09T03:12:17;96505.28;;;14.89;100.00
64610;BME280;51019;46.090;6.350;2022-09-09T03:14:44;96482.09;;;14.69;100.00
64610;BME280;51019;46.090;6.350;2022-09-09T03:17:12;96421.19;;;14.31;100.00
64610;BME280;51019;46.090;6.350;2022-09-09T03:19:40;96444.06;;;14.39;100.00
64610;BME280;51019;46.090;6.350;2022-09-09T03:22:09;96393.16;;;14.22;100.00
64610;BME280;51019;46.090;6.350;2022-09-09T03:24:36;96503.16;;;14.85;100.00
64610;BME280;51019;46.090;6.350;2022-09-09T03:27:03;96426.94;;;14.43;100.00
64610;BME280;51019;46.090;6.350;2022-09-09T03:29:30;96432.84;;;14.45;100.00
64610;BME280;51019;46.090;6.350;2022-09-09T03:31:58;96519.66;;;14.87;100.00
64610;BME280;51019;46.090;6.350;2022-09-09T03:34:25;96465.63;;;14.67;100.00
64610;BME280;51019;46.090;6.350;2022-09-09T03:36:53;96518.78;;;14.95;100.00
64610;BME280;51019;46.090;6.350;2022-09-09T03:39:20;96463.00;;;14.59;100.00
64610;BME280;51019;46.090;6.350;2022-09-09T03:41:47;96442.41;;;14.54;100.00
64610;BME280;51019;46.090;6.350;2022-09-09T03:44:14;96485.50;;;14.85;100.00
64610;BME280;51019;46.090;6.350;2022-09-09T03:46:41;96495.38;;;14.92;100.00
64610;BME280;51019;46.090;6.350;2022-09-09T03:49:08;96493.72;;;14.90;100.00
64610;BME280;51019;46.090;6.350;2022-09-09T03:51:35;96460.19;;;14.60;100.00
64610;BME280;51019;46.090;6.350;2022-09-09T03:54:05;96503.16;;;14.85;100.00
64610;BME280;51019;46.090;6.350;2022-09-09T03:56:34;96496.91;;;14.78;100.00
64610;BME280;51019;46.090;6.350;2022-09-09T03:59:01;96446.84;;;14.37;100.00
64610;BME280;51019;46.090;6.350;2022-09-09T04:01:28;96451.16;;;14.38;100.00
64610;BME280;51019;46.090;6.350;2022-09-09T04:03:55;96476.69;;;14.46;100.00
64610;BME280;51019;46.090;6.350;2022-09-09T04:06:24;96507.19;;;14.48;100.00
64610;BME280;51019;46.090;6.350;2022-09-09T04:08:51;96503.25;;;14.44;100.00
64610;BME280;51019;46.090;6.350;2022-09-09T04:11:20;96496.97;;;14.45;100.00
64610;BME280;51019;46.090;6.350;2022-09-09T04:13:47;96502.41;;;14.52;100.00
64610;BME280;51019;46.090;6.350;2022-09-09T04:16:14;96498.44;;;14.48;100.00
64610;BME280;51019;46.090;6.350;2022-09-09T04:18:50;96476.53;;;14.47;100.00
64610;BME280;51019;46.090;6.350;2022-09-09T04:21:32;96442.63;;;14.04;100.00
64610;BME280;51019;46.090;6.350;2022-09-09T04:24:10;96406.72;;;13.78;100.00
64610;BME280;51019;46.090;6.350;2022-09-09T04:29:50;96325.78;;;13.24;100.00
64610;BME280;51019;46.090;6.350;2022-09-09T04:32:22;96502.06;;;14.39;100.00
64610;BME280;51019;46.090;6.350;2022-09-09T04:35:08;96410.69;;;13.82;100.00
64610;BME280;51019;46.090;6.350;2022-09-09T04:37:58;96499.28;;;14.40;100.00
64610;BME280;51019;46.090;6.350;2022-09-09T04:40:35;96438.66;;;13.92;100.00
64610;BME280;51019;46.090;6.350;2022-09-09T04:43:27;96374.47;;;13.44;100.00
64610;BME280;51019;46.090;6.350;2022-09-09T04:46:00;96350.28;;;13.24;100.00
64610;BME280;51019;46.090;6.350;2022-09-09T04:48:28;96373.81;;;13.26;100.00
64610;BME280;51019;46.090;6.350;2022-09-09T04:51:01;96496.47;;;13.85;100.00
64610;BME280;51019;46.090;6.350;2022-09-09T04:53:32;96496.28;;;13.78;100.00
64610;BME280;51019;46.090;6.350;2022-09-09T04:56:04;96394.47;;;13.13;100.00
64610;BME280;51019;46.090;6.350;2022-09-09T04:58:33;96467.16;;;13.72;100.00
64610;BME280;51019;46.090;6.350;2022-09-09T05:01:05;96441.78;;;13.55;100.00
64610;BME280;51019;46.090;6.350;2022-09-09T05:03:32;96473.00;;;13.25;100.00
64610;BME280;51019;46.090;6.350;2022-09-09T05:06:04;96496.59;;;13.59;100.00
64610;BME280;51019;46.090;6.350;2022-09-09T05:08:32;96460.03;;;13.40;100.00
64610;BME280;51019;46.090;6.350;2022-09-09T05:10:59;96492.81;;;13.54;100.00
64610;BME280;51019;46.090;6.350;2022-09-09T05:13:26;96424.22;;;13.05;100.00
64610;BME280;51019;46.090;6.350;2022-09-09T05:15:55;96377.03;;;13.03;100.00
64610;BME280;51019;46.090;6.350;2022-09-09T05:18:22;96508.50;;;13.88;100.00
64610;BME280;51019;46.090;6.350;2022-09-09T05:20:49;96464.19;;;13.59;100.00
64610;BME280;51019;46.090;6.350;2022-09-09T05:23:16;96420.03;;;13.28;100.00
64610;BME280;51019;46.090;6.350;2022-09-09T05:25:43;96509.81;;;13.84;100.00
64610;BME280;51019;46.090;6.350;2022-09-09T05:28:12;96360.72;;;12.92;100.00
64610;BME280;51019;46.090;6.350;2022-09-09T05:30:39;96360.06;;;12.90;100.00
64610;BME280;51019;46.090;6.350;2022-09-09T05:33:09;96508.47;;;13.79;100.00
64610;BME280;51019;46.090;6.350;2022-09-09T05:35:36;96347.72;;;12.74;100.00
64610;BME280;51019;46.090;6.350;2022-09-09T05:38:04;96436.00;;;13.35;100.00
64610;BME280;51019;46.090;6.350;2022-09-09T05:40:36;96482.09;;;13.47;100.00
64610;BME280;51019;46.090;6.350;2022-09-09T05:43:04;96377.09;;;12.69;100.00
64610;BME280;51019;46.090;6.350;2022-09-09T05:45:32;96393.13;;;12.92;100.00
64610;BME280;51019;46.090;6.350;2022-09-09T05:48:15;96427.63;;;13.31;100.00
64610;BME280;51019;46.090;6.350;2022-09-09T05:50:52;96543.91;;;13.85;100.00
64610;BME280;51019;46.090;6.350;2022-09-09T05:53:19;96557.72;;;13.87;100.00
64610;BME280;51019;46.090;6.350;2022-09-09T05:55:47;96394.34;;;13.14;100.00
64610;BME280;51019;46.090;6.350;2022-09-09T05:58:14;96449.69;;;14.03;100.00
64610;BME280;51019;46.090;6.350;2022-09-09T06:00:42;96552.78;;;14.89;100.00
64610;BME280;51019;46.090;6.350;2022-09-09T06:03:10;96489.00;;;14.78;100.00
64610;BME280;51019;46.090;6.350;2022-09-09T06:05:39;96416.59;;;14.01;100.00
64610;BME280;51019;46.090;6.350;2022-09-09T06:08:06;96500.75;;;14.35;100.00
64610;BME280;51019;46.090;6.350;2022-09-09T06:10:34;96464.69;;;14.03;100.00
64610;BME280;51019;46.090;6.350;2022-09-09T06:13:01;96510.16;;;14.45;100.00
64610;BME280;51019;46.090;6.350;2022-09-09T06:15:29;96392.09;;;13.76;100.00
64610;BME280;51019;46.090;6.350;2022-09-09T06:17:57;96437.03;;;13.91;100.00
64610;BME280;51019;46.090;6.350;2022-09-09T06:20:24;96531.22;;;14.62;100.00
64610;BME280;51019;46.090;6.350;2022-09-09T06:22:53;96420.06;;;14.01;100.00
64610;BME280;51019;46.090;6.350;2022-09-09T06:25:22;96539.19;;;15.09;100.00
64610;BME280;51019;46.090;6.350;2022-09-09T06:27:50;96474.34;;;14.59;100.00
64610;BME280;51019;46.090;6.350;2022-09-09T06:30:17;96402.09;;;14.13;100.00
64610;BME280;51019;46.090;6.350;2022-09-09T06:32:44;96507.31;;;15.80;99.96
64610;BME280;51019;46.090;6.350;2022-09-09T06:35:12;96404.72;;;15.15;100.00
64610;BME280;51019;46.090;6.350;2022-09-09T06:37:39;96544.81;;;15.84;100.00
64610;BME280;51019;46.090;6.350;2022-09-09T06:40:09;96390.75;;;14.68;100.00
64610;BME280;51019;46.090;6.350;2022-09-09T06:42:36;96494.78;;;15.12;100.00
64610;BME280;51019;46.090;6.350;2022-09-09T06:45:05;96557.31;;;15.67;100.00
64610;BME280;51019;46.090;6.350;2022-09-09T06:47:32;96471.63;;;14.92;100.00
64610;BME280;51019;46.090;6.350;2022-09-09T06:50:00;96505.38;;;15.04;100.00
64610;BME280;51019;46.090;6.350;2022-09-09T06:52:27;96416.78;;;14.71;100.00
64610;BME280;51019;46.090;6.350;2022-09-09T06:54:55;96487.81;;;15.27;100.00
64610;BME280;51019;46.090;6.350;2022-09-09T06:57:25;96471.41;;;15.09;100.00
64610;BME280;51019;46.090;6.350;2022-09-09T06:59:52;96553.28;;;15.79;100.00
64610;BME280;51019;46.090;6.350;2022-09-09T07:02:19;96464.63;;;15.46;100.00
64610;BME280;51019;46.090;6.350;2022-09-09T07:04:47;96562.72;;;15.74;100.00
64610;BME280;51019;46.090;6.350;2022-09-09T07:07:15;96410.53;;;15.03;100.00
64610;BME280;51019;46.090;6.350;2022-09-09T07:09:43;96419.25;;;15.11;100.00
64610;BME280;51019;46.090;6.350;2022-09-09T07:12:12;96546.00;;;16.04;100.00
64610;BME280;51019;46.090;6.350;2022-09-09T07:14:40;96381.66;;;15.09;100.00
64610;BME280;51019;46.090;6.350;2022-09-09T07:17:08;96431.47;;;15.89;97.96
64610;BME280;51019;46.090;6.350;2022-09-09T07:19:35;96483.91;;;16.00;99.11
64610;BME280;51019;46.090;6.350;2022-09-09T07:22:02;96573.13;;;17.04;96.26
64610;BME280;51019;46.090;6.350;2022-09-09T07:24:29;96563.59;;;17.54;93.70
64610;BME280;51019;46.090;6.350;2022-09-09T07:26:57;96491.94;;;17.11;93.63
64610;BME280;51019;46.090;6.350;2022-09-09T07:29:25;96443.19;;;16.47;94.28
64610;BME280;51019;46.090;6.350;2022-09-09T07:31:53;96521.78;;;17.85;90.28
64610;BME280;51019;46.090;6.350;2022-09-09T07:34:20;96524.84;;;18.03;91.50
64610;BME280;51019;46.090;6.350;2022-09-09T07:36:47;96468.88;;;17.98;90.16
64610;BME280;51019;46.090;6.350;2022-09-09T07:39:14;96578.69;;;18.46;87.07
64610;BME280;51019;46.090;6.350;2022-09-09T07:41:47;96469.03;;;17.90;88.24
64610;BME280;51019;46.090;6.350;2022-09-09T07:44:21;96575.72;;;17.92;90.56
64610;BME280;51019;46.090;6.350;2022-09-09T07:47:02;96510.84;;;17.95;90.64
64610;BME280;51019;46.090;6.350;2022-09-09T07:49:43;96486.94;;;17.67;90.32
64610;BME280;51019;46.090;6.350;2022-09-09T07:52:26;96574.59;;;18.65;85.26
64610;BME280;51019;46.090;6.350;2022-09-09T07:55:01;96571.53;;;19.17;81.08
64610;BME280;51019;46.090;6.350;2022-09-09T07:58:00;96537.00;;;18.90;81.37
64610;BME280;51019;46.090;6.350;2022-09-09T08:00:27;96498.69;;;18.00;85.09
64610;BME280;51019;46.090;6.350;2022-09-09T08:02:56;96530.06;;;18.89;83.65
64610;BME280;51019;46.090;6.350;2022-09-09T08:05:24;96587.97;;;19.34;80.14
64610;BME280;51019;46.090;6.350;2022-09-09T08:07:51;96466.78;;;18.99;79.39
64610;BME280;51019;46.090;6.350;2022-09-09T08:10:18;96524.59;;;19.72;77.02
64610;BME280;51019;46.090;6.350;2022-09-09T08:12:45;96553.63;;;19.74;78.08
64610;BME280;51019;46.090;6.350;2022-09-09T08:15:12;96577.25;;;19.55;76.69
64610;BME280;51019;46.090;6.350;2022-09-09T08:17:39;96569.22;;;18.80;79.43
64610;BME280;51019;46.090;6.350;2022-09-09T08:20:09;96583.41;;;19.56;75.31
64610;BME280;51019;46.090;6.350;2022-09-09T08:22:36;96575.25;;;20.25;73.78
64610;BME280;51019;46.090;6.350;2022-09-09T08:25:04;96564.78;;;19.49;72.15
64610;BME280;51019;46.090;6.350;2022-09-09T08:27:34;96523.28;;;19.20;72.13
64610;BME280;51019;46.090;6.350;2022-09-09T08:30:03;96441.47;;;19.03;74.05
64610;BME280;51019;46.090;6.350;2022-09-09T08:32:30;96472.97;;;19.53;71.54
64610;BME280;51019;46.090;6.350;2022-09-09T08:34:57;96561.38;;;20.36;70.48
64610;BME280;51019;46.090;6.350;2022-09-09T08:37:26;96489.81;;;19.80;72.12
64610;BME280;51019;46.090;6.350;2022-09-09T08:39:57;96588.75;;;20.17;71.28
64610;BME280;51019;46.090;6.350;2022-09-09T08:42:31;96546.56;;;20.07;71.40
64610;BME280;51019;46.090;6.350;2022-09-09T08:45:14;96572.88;;;20.63;68.82
64610;BME280;51019;46.090;6.350;2022-09-09T08:47:52;96451.63;;;20.27;67.45
64610;BME280;51019;46.090;6.350;2022-09-09T08:50:25;96482.66;;;19.74;67.30
64610;BME280;51019;46.090;6.350;2022-09-09T08:53:00;96496.50;;;19.56;67.46
64610;BME280;51019;46.090;6.350;2022-09-09T08:55:35;96491.06;;;19.91;65.84
64610;BME280;51019;46.090;6.350;2022-09-09T08:58:11;96526.34;;;20.19;63.29
64610;BME280;51019;46.090;6.350;2022-09-09T09:00:48;96579.50;;;20.06;65.90
64610;BME280;51019;46.090;6.350;2022-09-09T09:03:28;96544.41;;;20.70;65.60
64610;BME280;51019;46.090;6.350;2022-09-09T09:06:03;96449.78;;;20.35;63.90
64610;BME280;51019;46.090;6.350;2022-09-09T09:08:39;96571.03;;;20.70;64.73
64610;BME280;51019;46.090;6.350;2022-09-09T09:11:10;96582.50;;;20.57;64.34
64610;BME280;51019;46.090;6.350;2022-09-09T09:13:41;96592.56;;;20.75;65.68
64610;BME280;51019;46.090;6.350;2022-09-09T09:16:19;96545.03;;;20.72;63.96
64610;BME280;51019;46.090;6.350;2022-09-09T09:18:48;96547.88;;;20.90;63.11
64610;BME280;51019;46.090;6.350;2022-09-09T09:21:21;96583.38;;;21.75;61.17
64610;BME280;51019;46.090;6.350;2022-09-09T09:23:58;96536.31;;;21.43;59.69
64610;BME280;51019;46.090;6.350;2022-09-09T09:26:25;96585.78;;;20.99;58.92
64610;BME280;51019;46.090;6.350;2022-09-09T09:28:56;96503.03;;;20.67;57.80
64610;BME280;51019;46.090;6.350;2022-09-09T09:31:26;96583.94;;;20.80;59.26
64610;BME280;51019;46.090;6.350;2022-09-09T09:33:54;96547.28;;;21.72;58.53
64610;BME280;51019;46.090;6.350;2022-09-09T09:36:24;96574.41;;;21.56;58.62
64610;BME280;51019;46.090;6.350;2022-09-09T09:38:56;96472.72;;;20.62;55.16
64610;BME280;51019;46.090;6.350;2022-09-09T09:41:33;96548.84;;;21.35;56.94
64610;BME280;51019;46.090;6.350;2022-09-09T09:44:02;96492.53;;;21.19;53.60
64610;BME280;51019;46.090;6.350;2022-09-09T09:46:30;96530.88;;;20.58;55.39
64610;BME280;51019;46.090;6.350;2022-09-09T09:48:58;96511.44;;;20.45;56.87
64610;BME280;51019;46.090;6.350;2022-09-09T09:51:26;96499.88;;;21.74;54.90
64610;BME280;51019;46.090;6.350;2022-09-09T09:54:07;96583.03;;;21.58;54.53
64610;BME280;51019;46.090;6.350;2022-09-09T09:56:35;96554.19;;;21.87;54.37
64610;BME280;51019;46.090;6.350;2022-09-09T09:59:04;96536.53;;;22.30;52.93
64610;BME280;51019;46.090;6.350;2022-09-09T10:01:33;96520.81;;;22.16;52.06
64610;BME280;51019;46.090;6.350;2022-09-09T10:04:03;96554.06;;;22.20;50.20
64610;BME280;51019;46.090;6.350;2022-09-09T10:06:40;96533.69;;;21.23;51.60
64610;BME280;51019;46.090;6.350;2022-09-09T10:09:21;96520.09;;;22.33;51.55
64610;BME280;51019;46.090;6.350;2022-09-09T10:11:55;96548.72;;;22.20;51.27
64610;BME280;51019;46.090;6.350;2022-09-09T10:14:33;96533.84;;;21.92;51.67
64610;BME280;51019;46.090;6.350;2022-09-09T10:17:13;96553.50;;;22.42;50.92
64610;BME280;51019;46.090;6.350;2022-09-09T10:19:52;96485.25;;;21.84;51.16
64610;BME280;51019;46.090;6.350;2022-09-09T10:22:27;96507.50;;;22.09;50.30
64610;BME280;51019;46.090;6.350;2022-09-09T10:25:12;96467.31;;;22.29;48.48
64610;BME280;51019;46.090;6.350;2022-09-09T10:27:50;96569.75;;;21.90;47.51
64610;BME280;51019;46.090;6.350;2022-09-09T10:30:24;96437.16;;;21.65;48.14
64610;BME280;51019;46.090;6.350;2022-09-09T10:33:02;96563.41;;;21.91;47.60
64610;BME280;51019;46.090;6.350;2022-09-09T10:35:34;96522.44;;;22.17;47.84
64610;BME280;51019;46.090;6.350;2022-09-09T10:38:17;96562.13;;;22.38;48.62
64610;BME280;51019;46.090;6.350;2022-09-09T10:40:48;96570.50;;;22.79;48.25
64610;BME280;51019;46.090;6.350;2022-09-09T10:43:37;96563.88;;;22.82;46.97
64610;BME280;51019;46.090;6.350;2022-09-09T10:46:12;96511.63;;;22.05;48.31
64610;BME280;51019;46.090;6.350;2022-09-09T10:48:54;96553.06;;;22.70;46.31
64610;BME280;51019;46.090;6.350;2022-09-09T10:51:30;96519.97;;;21.77;48.18
64610;BME280;51019;46.090;6.350;2022-09-09T10:56:34;96568.41;;;22.81;47.17
64610;BME280;51019;46.090;6.350;2022-09-09T10:59:06;96508.88;;;23.17;46.96
64610;BME280;51019;46.090;6.350;2022-09-09T11:01:43;96552.56;;;23.84;44.80
64610;BME280;51019;46.090;6.350;2022-09-09T11:04:17;96567.78;;;22.55;47.67
64610;BME280;51019;46.090;6.350;2022-09-09T11:06:50;96580.03;;;23.37;45.25
64610;BME280;51019;46.090;6.350;2022-09-09T11:09:19;96572.78;;;23.99;44.98
64610;BME280;51019;46.090;6.350;2022-09-09T11:11:54;96495.78;;;22.66;46.11
64610;BME280;51019;46.090;6.350;2022-09-09T11:14:28;96478.63;;;21.93;47.41
64610;BME280;51019;46.090;6.350;2022-09-09T11:16:58;96566.69;;;23.73;44.36
64610;BME280;51019;46.090;6.350;2022-09-09T11:19:30;96540.66;;;23.99;43.88
64610;BME280;51019;46.090;6.350;2022-09-09T11:22:02;96570.38;;;24.09;44.16
64610;BME280;51019;46.090;6.350;2022-09-09T11:24:36;96571.16;;;23.79;43.30
64610;BME280;51019;46.090;6.350;2022-09-09T11:27:11;96576.75;;;22.67;44.06
64610;BME280;51019;46.090;6.350;2022-09-09T11:30:04;96518.63;;;22.87;43.29
64610;BME280;51019;46.090;6.350;2022-09-09T11:33:07;96573.63;;;24.29;42.28
64610;BME280;51019;46.090;6.350;2022-09-09T11:36:19;96576.06;;;24.31;41.66
64610;BME280;51019;46.090;6.350;2022-09-09T11:38:52;96566.00;;;24.44;41.98
64610;BME280;51019;46.090;6.350;2022-09-09T11:41:20;96564.63;;;24.53;41.55
64610;BME280;51019;46.090;6.350;2022-09-09T11:43:51;96576.94;;;25.78;40.34
64610;BME280;51019;46.090;6.350;2022-09-09T11:46:21;96455.53;;;23.41;40.38
64610;BME280;51019;46.090;6.350;2022-09-09T11:48:58;96530.75;;;23.99;39.71
64610;BME280;51019;46.090;6.350;2022-09-09T11:51:27;96464.38;;;22.62;41.90
64610;BME280;51019;46.090;6.350;2022-09-09T11:53:57;96574.94;;;23.72;40.96
64610;BME280;51019;46.090;6.350;2022-09-09T11:56:28;96570.03;;;24.77;37.32
64610;BME280;51019;46.090;6.350;2022-09-09T11:59:00;96567.03;;;24.43;39.58
64610;BME280;51019;46.090;6.350;2022-09-09T12:01:34;96573.72;;;24.64;39.98
64610;BME280;51019;46.090;6.350;2022-09-09T12:04:14;96569.09;;;25.88;38.63
64610;BME280;51019;46.090;6.350;2022-09-09T12:06:44;96521.81;;;25.35;36.82
64610;BME280;51019;46.090;6.350;2022-09-09T12:09:25;96568.69;;;25.21;39.03
64610;BME280;51019;46.090;6.350;2022-09-09T12:12:05;96561.47;;;25.21;37.42
64610;BME280;51019;46.090;6.350;2022-09-09T12:14:42;96573.28;;;26.24;38.08
64610;BME280;51019;46.090;6.350;2022-09-09T12:17:17;96571.88;;;25.93;37.59
64610;BME280;51019;46.090;6.350;2022-09-09T12:19:46;96572.75;;;25.47;38.02
64610;BME280;51019;46.090;6.350;2022-09-09T12:22:20;96467.34;;;24.00;38.55
64610;BME280;51019;46.090;6.350;2022-09-09T12:24:54;96463.75;;;24.47;39.17
64610;BME280;51019;46.090;6.350;2022-09-09T12:27:27;96554.66;;;25.65;34.25
64610;BME280;51019;46.090;6.350;2022-09-09T12:30:03;96563.75;;;24.83;37.43
64610;BME280;51019;46.090;6.350;2022-09-09T12:32:32;96562.69;;;24.31;38.69
64610;BME280;51019;46.090;6.350;2022-09-09T12:35:02;96563.00;;;24.64;37.63
64610;BME280;51019;46.090;6.350;2022-09-09T12:37:34;96556.13;;;23.97;37.46
64610;BME280;51019;46.090;6.350;2022-09-09T12:40:03;96564.59;;;23.94;39.68
64610;BME280;51019;46.090;6.350;2022-09-09T12:42:31;96570.84;;;22.90;40.06
64610;BME280;51019;46.090;6.350;2022-09-09T12:45:03;96538.31;;;24.62;38.48
64610;BME280;51019;46.090;6.350;2022-09-09T12:47:43;96545.78;;;25.77;37.59
64610;BME280;51019;46.090;6.350;2022-09-09T12:50:22;96556.59;;;26.67;36.45
64610;BME280;51019;46.090;6.350;2022-09-09T12:52:53;96559.91;;;25.72;35.66
64610;BME280;51019;46.090;6.350;2022-09-09T12:55:24;96475.22;;;25.53;35.86
64610;BME280;51019;46.090;6.350;2022-09-09T12:57:52;96525.88;;;25.38;36.52
64610;BME280;51019;46.090;6.350;2022-09-09T13:00:22;96473.38;;;24.25;38.24
64610;BME280;51019;46.090;6.350;2022-09-09T13:02:51;96539.66;;;24.41;38.82
64610;BME280;51019;46.090;6.350;2022-09-09T13:05:22;96540.44;;;25.53;36.31
64610;BME280;51019;46.090;6.350;2022-09-09T13:07:50;96527.34;;;25.57;37.20
64610;BME280;51019;46.090;6.350;2022-09-09T13:10:23;96530.25;;;25.79;35.85
64610;BME280;51019;46.090;6.350;2022-09-09T13:12:52;96540.09;;;25.50;34.67
64610;BME280;51019;46.090;6.350;2022-09-09T13:15:26;96511.72;;;24.37;37.01
64610;BME280;51019;46.090;6.350;2022-09-09T13:17:56;96519.03;;;26.10;36.97
64610;BME280;51019;46.090;6.350;2022-09-09T13:20:26;96530.75;;;24.71;37.67
64610;BME280;51019;46.090;6.350;2022-09-09T13:22:54;96526.19;;;24.48;37.34
64610;BME280;51019;46.090;6.350;2022-09-09T13:25:25;96527.72;;;24.67;37.83